createdAt,value
2019-05-06T00:00:13.957Z,971.54
2019-05-06T00:01:12.462Z,971.53
2019-05-06T00:02:13.816Z,971.54
2019-05-06T00:03:13.870Z,971.53
2019-05-06T00:04:14.060Z,971.52
2019-05-06T00:05:14.311Z,971.51
2019-05-06T00:06:14.430Z,971.54
2019-05-06T00:07:13.810Z,971.54
2019-05-06T00:08:14.456Z,971.53
2019-05-06T00:09:14.578Z,971.57
2019-05-06T00:10:13.451Z,971.58
2019-05-06T00:11:14.178Z,971.56
2019-05-06T00:12:14.554Z,971.58
2019-05-06T00:13:14.028Z,971.57
2019-05-06T00:14:14.150Z,971.57
2019-05-06T00:15:14.494Z,971.58
2019-05-06T00:16:14.383Z,971.55
2019-05-06T00:17:14.557Z,971.59
2019-05-06T00:18:13.823Z,971.59
2019-05-06T00:19:13.876Z,971.58
2019-05-06T00:20:14.656Z,971.59
2019-05-06T00:21:14.763Z,971.61
2019-05-06T00:22:14.239Z,971.56
2019-05-06T00:23:14.231Z,971.55
2019-05-06T00:24:14.616Z,971.57
2019-05-06T00:25:14.041Z,971.53
2019-05-06T00:26:13.739Z,971.54
2019-05-06T00:27:14.174Z,971.59
2019-05-06T00:28:13.746Z,971.56
2019-05-06T00:29:13.971Z,971.54
2019-05-06T00:30:14.936Z,971.60
2019-05-06T00:31:16.533Z,971.60
2019-05-06T00:32:15.026Z,971.58
2019-05-06T00:33:13.860Z,971.60
2019-05-06T00:34:13.973Z,971.64
2019-05-06T00:35:14.243Z,971.63
2019-05-06T00:36:14.200Z,971.62
2019-05-06T00:37:14.604Z,971.59
2019-05-06T00:38:14.068Z,971.65
2019-05-06T00:39:14.901Z,971.62
2019-05-06T00:40:14.157Z,971.64
2019-05-06T00:41:14.442Z,971.66
2019-05-06T00:42:14.224Z,971.63
2019-05-06T00:43:14.288Z,971.63
2019-05-06T00:44:14.410Z,971.66
2019-05-06T00:45:14.342Z,971.65
2019-05-06T00:46:14.393Z,971.67
2019-05-06T00:47:14.430Z,971.67
2019-05-06T00:48:14.492Z,971.68
2019-05-06T00:49:14.533Z,971.67
2019-05-06T00:50:14.561Z,971.68
2019-05-06T00:51:14.608Z,971.64
2019-05-06T00:52:14.651Z,971.67
2019-05-06T00:53:14.684Z,971.70
2019-05-06T00:54:14.745Z,971.73
2019-05-06T00:55:14.770Z,971.69
2019-05-06T00:56:14.814Z,971.73
2019-05-06T00:57:14.855Z,971.72
2019-05-06T00:58:14.899Z,971.69
2019-05-06T00:59:14.969Z,971.68
2019-05-06T01:00:14.985Z,971.69
2019-05-06T01:01:26.326Z,971.74
2019-05-06T01:02:15.068Z,971.66
2019-05-06T01:03:15.110Z,971.68
2019-05-06T01:04:15.175Z,971.66
2019-05-06T01:05:15.213Z,971.67
2019-05-06T01:06:15.247Z,971.70
2019-05-06T01:07:15.280Z,971.68
2019-05-06T01:08:15.323Z,971.68
2019-05-06T01:09:15.365Z,971.68
2019-05-06T01:10:15.426Z,971.70
2019-05-06T01:11:15.450Z,971.67
2019-05-06T01:12:15.495Z,971.68
2019-05-06T01:13:15.537Z,971.68
2019-05-06T01:14:15.601Z,971.64
2019-05-06T01:15:15.643Z,971.67
2019-05-06T01:16:15.816Z,971.65
2019-05-06T01:17:15.705Z,971.68
2019-05-06T01:18:15.747Z,971.67
2019-05-06T01:19:15.791Z,971.67
2019-05-06T01:20:15.861Z,971.72
2019-05-06T01:21:15.884Z,971.70
2019-05-06T01:22:15.918Z,971.73
2019-05-06T01:23:15.964Z,971.77
2019-05-06T01:24:16.015Z,971.73
2019-05-06T01:25:16.074Z,971.74
2019-05-06T01:26:16.085Z,971.75
2019-05-06T01:27:16.126Z,971.75
2019-05-06T01:28:16.174Z,971.78
2019-05-06T01:29:16.208Z,971.76
2019-05-06T01:30:16.274Z,971.74
2019-05-06T01:31:16.296Z,971.75
2019-05-06T01:32:16.343Z,971.74
2019-05-06T01:33:16.383Z,971.74
2019-05-06T01:34:16.431Z,971.81
2019-05-06T01:35:16.490Z,971.76
2019-05-06T01:36:16.549Z,971.79
2019-05-06T01:37:16.546Z,971.80
2019-05-06T01:38:16.600Z,971.85
2019-05-06T01:39:16.637Z,971.86
2019-05-06T01:40:16.695Z,971.88
2019-05-06T01:41:16.729Z,971.84
2019-05-06T01:42:16.769Z,971.91
2019-05-06T01:43:16.799Z,971.93
2019-05-06T01:44:16.841Z,971.96
2019-05-06T01:45:16.912Z,971.99
2019-05-06T01:46:16.927Z,971.94
2019-05-06T01:47:16.969Z,971.93
2019-05-06T01:48:17.015Z,971.92
2019-05-06T01:49:17.054Z,971.88
2019-05-06T01:50:17.114Z,971.96
2019-05-06T01:51:17.157Z,971.98
2019-05-06T01:52:17.176Z,971.96
2019-05-06T01:53:17.222Z,971.97
2019-05-06T01:54:17.263Z,971.97
2019-05-06T01:55:17.309Z,971.94
2019-05-06T01:56:17.379Z,971.92
2019-05-06T01:57:17.387Z,971.97
2019-05-06T01:58:17.463Z,971.92
2019-05-06T01:59:17.472Z,971.98
2019-05-06T02:00:17.517Z,971.97
2019-05-06T02:01:17.575Z,971.96
2019-05-06T02:02:17.617Z,971.95
2019-05-06T02:03:17.649Z,972.02
2019-05-06T02:04:17.682Z,972.00
2019-05-06T02:05:17.722Z,971.99
2019-05-06T02:06:17.793Z,972.01
2019-05-06T02:07:17.816Z,972.00
2019-05-06T02:08:17.857Z,972.01
2019-05-06T02:09:17.895Z,972.03
2019-05-06T02:10:17.945Z,972.02
2019-05-06T02:11:17.999Z,972.07
2019-05-06T02:12:18.063Z,972.05
2019-05-06T02:13:18.069Z,972.05
2019-05-06T02:14:18.102Z,972.10
2019-05-06T02:15:18.149Z,972.17
2019-05-06T02:16:18.186Z,972.12
2019-05-06T02:17:18.255Z,972.14
2019-05-06T02:18:18.270Z,972.15
2019-05-06T02:19:18.318Z,972.11
2019-05-06T02:20:18.355Z,972.13
2019-05-06T02:21:18.398Z,972.16
2019-05-06T02:22:18.461Z,972.14
2019-05-06T02:23:18.486Z,972.12
2019-05-06T02:24:18.531Z,972.15
2019-05-06T02:25:18.566Z,972.17
2019-05-06T02:26:18.636Z,972.17
2019-05-06T02:27:18.663Z,972.17
2019-05-06T02:28:18.689Z,972.17
2019-05-06T02:29:18.732Z,972.17
2019-05-06T02:30:18.781Z,972.19
2019-05-06T02:31:18.817Z,972.21
2019-05-06T02:32:26.073Z,972.22
2019-05-06T02:33:18.897Z,972.21
2019-05-06T02:34:18.935Z,972.23
2019-05-06T02:35:18.988Z,972.24
2019-05-06T02:36:19.020Z,972.20
2019-05-06T02:37:19.091Z,972.24
2019-05-06T02:38:19.116Z,972.24
2019-05-06T02:39:19.151Z,972.27
2019-05-06T02:40:19.203Z,972.25
2019-05-06T02:41:19.228Z,972.23
2019-05-06T02:42:19.290Z,972.23
2019-05-06T02:43:19.316Z,972.24
2019-05-06T02:44:19.366Z,972.26
2019-05-06T02:45:19.405Z,972.25
2019-05-06T02:46:19.449Z,972.28
2019-05-06T02:47:19.519Z,972.28
2019-05-06T02:48:19.525Z,972.24
2019-05-06T02:49:19.563Z,972.27
2019-05-06T02:50:19.610Z,972.27
2019-05-06T02:51:19.655Z,972.30
2019-05-06T02:52:22.641Z,972.30
2019-05-06T02:53:19.739Z,972.33
2019-05-06T02:54:23.180Z,972.32
2019-05-06T02:55:19.828Z,972.32
2019-05-06T02:56:19.891Z,972.36
2019-05-06T02:57:19.920Z,972.38
2019-05-06T02:58:19.940Z,972.34
2019-05-06T02:59:19.989Z,972.37
2019-05-06T03:00:20.027Z,972.35
2019-05-06T03:01:23.047Z,972.39
2019-05-06T03:02:37.555Z,972.39
2019-05-06T03:03:23.037Z,972.36
2019-05-06T03:04:20.194Z,972.37
2019-05-06T03:05:20.232Z,972.38
2019-05-06T03:06:20.276Z,972.38
2019-05-06T03:07:23.167Z,972.38
2019-05-06T03:08:23.476Z,972.43
2019-05-06T03:09:23.105Z,972.39
2019-05-06T03:10:24.360Z,972.43
2019-05-06T03:11:20.481Z,972.44
2019-05-06T03:12:22.854Z,972.45
2019-05-06T03:13:23.346Z,972.45
2019-05-06T03:14:23.456Z,972.47
2019-05-06T03:15:23.645Z,972.48
2019-05-06T03:16:23.515Z,972.47
2019-05-06T03:17:23.162Z,972.49
2019-05-06T03:18:23.297Z,972.48
2019-05-06T03:19:23.808Z,972.50
2019-05-06T03:20:23.571Z,972.51
2019-05-06T03:21:24.422Z,972.49
2019-05-06T03:22:27.378Z,972.55
2019-05-06T03:23:23.632Z,972.50
2019-05-06T03:24:23.664Z,972.50
2019-05-06T03:25:23.880Z,972.53
2019-05-06T03:26:23.413Z,972.50
2019-05-06T03:27:23.365Z,972.50
2019-05-06T03:28:22.545Z,972.50
2019-05-06T03:29:21.246Z,972.51
2019-05-06T03:30:25.587Z,972.49
2019-05-06T03:31:26.166Z,972.50
2019-05-06T03:32:24.902Z,972.51
2019-05-06T03:33:44.691Z,972.52
2019-05-06T03:34:38.448Z,972.56
2019-05-06T03:35:40.414Z,972.57
2019-05-06T03:36:27.039Z,972.56
2019-05-06T03:37:23.922Z,972.56
2019-05-06T03:38:22.936Z,972.55
2019-05-06T03:39:23.223Z,972.55
2019-05-06T03:40:23.114Z,972.53
2019-05-06T03:41:23.396Z,972.56
2019-05-06T03:42:23.109Z,972.53
2019-05-06T03:43:23.296Z,972.57
2019-05-06T03:44:23.828Z,972.55
2019-05-06T03:45:23.684Z,972.56
2019-05-06T03:46:23.251Z,972.50
2019-05-06T03:47:23.492Z,972.54
2019-05-06T03:48:23.972Z,972.55
2019-05-06T03:49:23.773Z,972.57
2019-05-06T03:50:24.038Z,972.57
2019-05-06T03:51:23.367Z,972.58
2019-05-06T03:52:23.343Z,972.56
2019-05-06T03:53:23.264Z,972.58
2019-05-06T03:54:23.186Z,972.59
2019-05-06T03:55:23.478Z,972.58
2019-05-06T03:56:23.812Z,972.62
2019-05-06T03:57:23.209Z,972.58
2019-05-06T03:58:23.619Z,972.61
2019-05-06T03:59:23.338Z,972.67
2019-05-06T04:00:23.681Z,972.64
2019-05-06T04:01:24.044Z,972.64
2019-05-06T04:02:24.091Z,972.67
2019-05-06T04:03:41.158Z,972.65
2019-05-06T04:04:23.369Z,972.68
2019-05-06T04:05:23.898Z,972.69
2019-05-06T04:06:24.187Z,972.69
2019-05-06T04:07:23.566Z,972.70
2019-05-06T04:08:24.166Z,972.72
2019-05-06T04:09:23.984Z,972.74
2019-05-06T04:10:23.077Z,972.72
2019-05-06T04:11:23.070Z,972.72
2019-05-06T04:12:23.488Z,972.75
2019-05-06T04:13:23.284Z,972.78
2019-05-06T04:14:23.820Z,972.73
2019-05-06T04:15:26.600Z,972.79
2019-05-06T04:16:23.317Z,972.79
2019-05-06T04:17:23.903Z,972.80
2019-05-06T04:18:23.807Z,972.84
2019-05-06T04:19:23.882Z,972.85
2019-05-06T04:20:23.707Z,972.81
2019-05-06T04:21:23.945Z,972.84
2019-05-06T04:22:23.714Z,972.84
2019-05-06T04:23:23.593Z,972.92
2019-05-06T04:24:23.573Z,972.90
2019-05-06T04:25:23.582Z,972.93
2019-05-06T04:26:24.058Z,972.93
2019-05-06T04:27:23.666Z,972.95
2019-05-06T04:28:23.985Z,972.94
2019-05-06T04:29:24.166Z,972.96
2019-05-06T04:30:24.462Z,973.00
2019-05-06T04:31:23.858Z,972.99
2019-05-06T04:32:23.871Z,972.99
2019-05-06T04:33:24.007Z,972.99
2019-05-06T04:34:23.976Z,972.97
2019-05-06T04:35:24.031Z,972.95
2019-05-06T04:36:24.041Z,972.99
2019-05-06T04:37:24.354Z,973.03
2019-05-06T04:38:24.137Z,972.93
2019-05-06T04:39:24.165Z,972.97
2019-05-06T04:40:24.242Z,973.05
2019-05-06T04:41:26.803Z,972.99
2019-05-06T04:42:26.896Z,973.00
2019-05-06T04:43:26.950Z,973.01
2019-05-06T04:44:24.445Z,973.04
2019-05-06T04:45:24.432Z,973.05
2019-05-06T04:46:24.465Z,973.04
2019-05-06T04:47:24.514Z,973.03
2019-05-06T04:48:24.544Z,973.07
2019-05-06T04:49:24.588Z,973.09
2019-05-06T04:50:24.677Z,973.05
2019-05-06T04:51:25.071Z,973.06
2019-05-06T04:52:26.062Z,973.05
2019-05-06T04:53:27.079Z,973.06
2019-05-06T04:54:26.663Z,973.06
2019-05-06T04:55:24.879Z,973.10
2019-05-06T04:56:24.875Z,973.10
2019-05-06T04:57:24.931Z,973.14
2019-05-06T04:58:24.996Z,973.11
2019-05-06T04:59:25.003Z,973.13
2019-05-06T05:00:25.078Z,973.09
2019-05-06T05:01:25.105Z,973.08
2019-05-06T05:02:25.149Z,973.12
2019-05-06T05:03:25.167Z,973.12
2019-05-06T05:04:32.178Z,973.14
2019-05-06T05:05:25.357Z,973.14
2019-05-06T05:06:25.325Z,973.14
2019-05-06T05:07:25.338Z,973.13
2019-05-06T05:08:25.384Z,973.14
2019-05-06T05:09:25.424Z,973.12
2019-05-06T05:10:25.463Z,973.13
2019-05-06T05:11:25.530Z,973.15
2019-05-06T05:12:25.575Z,973.16
2019-05-06T05:13:25.589Z,973.16
2019-05-06T05:14:26.189Z,973.20
2019-05-06T05:15:25.674Z,973.21
2019-05-06T05:16:25.740Z,973.22
2019-05-06T05:17:25.758Z,973.27
2019-05-06T05:18:25.800Z,973.28
2019-05-06T05:19:25.851Z,973.29
2019-05-06T05:20:37.066Z,973.30
2019-05-06T05:21:25.953Z,973.31
2019-05-06T05:22:25.970Z,973.31
2019-05-06T05:23:26.013Z,973.36
2019-05-06T05:24:26.056Z,973.36
2019-05-06T05:25:26.096Z,973.35
2019-05-06T05:26:26.162Z,973.33
2019-05-06T05:27:26.180Z,973.37
2019-05-06T05:28:26.230Z,973.35
2019-05-06T05:29:26.270Z,973.38
2019-05-06T05:30:26.310Z,973.39
2019-05-06T05:31:26.371Z,973.41
2019-05-06T05:32:26.938Z,973.43
2019-05-06T05:33:26.437Z,973.41
2019-05-06T05:34:37.121Z,973.43
2019-05-06T05:35:26.524Z,973.44
2019-05-06T05:36:26.586Z,973.45
2019-05-06T05:37:26.657Z,973.44
2019-05-06T05:38:26.651Z,973.42
2019-05-06T05:39:26.692Z,973.49
2019-05-06T05:40:26.739Z,973.47
2019-05-06T05:41:26.800Z,973.48
2019-05-06T05:42:27.042Z,973.47
2019-05-06T05:43:26.875Z,973.46
2019-05-06T05:44:26.907Z,973.48
2019-05-06T05:45:26.958Z,973.47
2019-05-06T05:46:27.014Z,973.53
2019-05-06T05:47:27.071Z,973.48
2019-05-06T05:48:27.080Z,973.48
2019-05-06T05:49:27.127Z,973.45
2019-05-06T05:50:27.163Z,973.48
2019-05-06T05:51:27.233Z,973.49
2019-05-06T05:52:27.272Z,973.47
2019-05-06T05:53:27.296Z,973.50
2019-05-06T05:54:27.342Z,973.50
2019-05-06T05:55:27.378Z,973.49
2019-05-06T05:56:27.452Z,973.50
2019-05-06T05:57:27.490Z,973.51
2019-05-06T05:58:27.510Z,973.50
2019-05-06T05:59:27.557Z,973.51
2019-05-06T06:00:27.605Z,973.52
2019-05-06T06:01:27.644Z,973.53
2019-05-06T06:02:27.722Z,973.53
2019-05-06T06:03:27.726Z,973.56
2019-05-06T06:04:27.778Z,973.54
2019-05-06T06:05:27.814Z,973.56
2019-05-06T06:06:27.859Z,973.57
2019-05-06T06:07:27.923Z,973.58
2019-05-06T06:08:27.949Z,973.58
2019-05-06T06:09:27.986Z,973.56
2019-05-06T06:10:28.042Z,973.59
2019-05-06T06:11:28.078Z,973.57
2019-05-06T06:12:28.146Z,973.54
2019-05-06T06:13:28.165Z,973.58
2019-05-06T06:14:28.240Z,973.62
2019-05-06T06:15:28.250Z,973.63
2019-05-06T06:16:28.308Z,973.64
2019-05-06T06:17:28.367Z,973.65
2019-05-06T06:18:28.380Z,973.67
2019-05-06T06:19:28.427Z,973.71
2019-05-06T06:20:28.467Z,973.74
2019-05-06T06:21:28.512Z,973.72
2019-05-06T06:22:28.575Z,973.70
2019-05-06T06:23:28.600Z,973.75
2019-05-06T06:24:28.646Z,973.72
2019-05-06T06:25:28.696Z,973.74
2019-05-06T06:26:28.789Z,973.73
2019-05-06T06:27:28.802Z,973.77
2019-05-06T06:28:28.838Z,973.72
2019-05-06T06:29:28.865Z,973.71
2019-05-06T06:30:28.909Z,973.73
2019-05-06T06:31:28.956Z,973.70
2019-05-06T06:32:28.996Z,973.71
2019-05-06T06:33:29.126Z,973.69
2019-05-06T06:34:29.097Z,973.72
2019-05-06T06:35:29.126Z,973.69
2019-05-06T06:36:29.180Z,973.70
2019-05-06T06:37:29.223Z,973.69
2019-05-06T06:38:29.295Z,973.70
2019-05-06T06:39:29.307Z,973.68
2019-05-06T06:40:29.392Z,973.67
2019-05-06T06:41:29.389Z,973.67
2019-05-06T06:42:29.447Z,973.72
2019-05-06T06:43:29.521Z,973.72
2019-05-06T06:44:29.551Z,973.69
2019-05-06T06:45:29.583Z,973.74
2019-05-06T06:46:29.626Z,973.72
2019-05-06T06:47:31.924Z,973.73
2019-05-06T06:48:29.712Z,973.73
2019-05-06T06:49:29.782Z,973.76
2019-05-06T06:50:29.792Z,973.73
2019-05-06T06:51:29.833Z,973.76
2019-05-06T06:52:29.880Z,973.73
2019-05-06T06:53:29.924Z,973.76
2019-05-06T06:54:32.177Z,973.74
2019-05-06T06:55:31.744Z,973.73
2019-05-06T06:56:30.059Z,973.77
2019-05-06T06:57:32.240Z,973.75
2019-05-06T06:58:32.171Z,973.77
2019-05-06T06:59:31.773Z,973.77
2019-05-06T07:00:30.245Z,973.79
2019-05-06T07:01:33.022Z,973.76
2019-05-06T07:02:32.665Z,973.82
2019-05-06T07:03:32.616Z,973.79
2019-05-06T07:04:32.404Z,973.74
2019-05-06T07:05:33.063Z,973.76
2019-05-06T07:06:30.504Z,973.76
2019-05-06T07:07:41.227Z,973.76
2019-05-06T07:08:34.840Z,973.74
2019-05-06T07:09:32.269Z,973.76
2019-05-06T07:10:32.415Z,973.74
2019-05-06T07:11:33.040Z,973.77
2019-05-06T07:12:32.679Z,973.79
2019-05-06T07:13:32.579Z,973.79
2019-05-06T07:14:32.659Z,973.80
2019-05-06T07:15:33.395Z,973.80
2019-05-06T07:16:32.774Z,973.81
2019-05-06T07:17:32.791Z,973.79
2019-05-06T07:18:33.051Z,973.80
2019-05-06T07:19:32.722Z,973.77
2019-05-06T07:20:32.489Z,973.75
2019-05-06T07:21:34.083Z,973.76
2019-05-06T07:22:32.494Z,973.77
2019-05-06T07:23:32.688Z,973.76
2019-05-06T07:24:32.424Z,973.76
2019-05-06T07:25:33.648Z,973.78
2019-05-06T07:26:31.799Z,973.75
2019-05-06T07:27:32.435Z,973.75
2019-05-06T07:28:32.642Z,973.78
2019-05-06T07:29:32.766Z,973.79
2019-05-06T07:30:32.282Z,973.80
2019-05-06T07:31:33.043Z,973.79
2019-05-06T07:32:32.581Z,973.79
2019-05-06T07:33:33.447Z,973.81
2019-05-06T07:34:32.201Z,973.80
2019-05-06T07:35:40.417Z,973.84
2019-05-06T07:36:32.261Z,973.80
2019-05-06T07:37:32.761Z,973.85
2019-05-06T07:38:32.538Z,973.83
2019-05-06T07:39:33.360Z,973.84
2019-05-06T07:40:32.612Z,973.81
2019-05-06T07:41:32.814Z,973.80
2019-05-06T07:42:32.291Z,973.79
2019-05-06T07:43:33.909Z,973.82
2019-05-06T07:44:33.382Z,973.87
2019-05-06T07:45:32.841Z,973.84
2019-05-06T07:46:33.128Z,973.85
2019-05-06T07:47:33.076Z,973.86
2019-05-06T07:48:32.452Z,973.87
2019-05-06T07:49:32.921Z,973.87
2019-05-06T07:50:33.235Z,973.85
2019-05-06T07:51:32.616Z,973.89
2019-05-06T07:52:32.710Z,973.88
2019-05-06T07:53:32.703Z,973.86
2019-05-06T07:54:32.946Z,973.87
2019-05-06T07:55:32.860Z,973.87
2019-05-06T07:56:32.866Z,973.86
2019-05-06T07:57:33.103Z,973.82
2019-05-06T07:58:32.936Z,973.79
2019-05-06T07:59:33.447Z,973.80
2019-05-06T08:00:33.158Z,973.80
2019-05-06T08:01:33.355Z,973.80
2019-05-06T08:02:33.130Z,973.83
2019-05-06T08:03:33.177Z,973.82
2019-05-06T08:04:33.242Z,973.82
2019-05-06T08:05:33.287Z,973.86
2019-05-06T08:06:33.355Z,973.83
2019-05-06T08:07:33.429Z,973.87
2019-05-06T08:08:33.874Z,973.86
2019-05-06T08:09:33.480Z,973.87
2019-05-06T08:10:33.544Z,973.82
2019-05-06T08:11:33.590Z,973.85
2019-05-06T08:12:33.618Z,973.85
2019-05-06T08:13:33.669Z,973.81
2019-05-06T08:14:33.716Z,973.87
2019-05-06T08:15:33.784Z,973.90
2019-05-06T08:16:33.832Z,973.87
2019-05-06T08:17:33.887Z,973.90
2019-05-06T08:18:33.959Z,973.83
2019-05-06T08:19:33.964Z,973.85
2019-05-06T08:20:34.010Z,973.88
2019-05-06T08:21:34.079Z,973.89
2019-05-06T08:22:34.105Z,973.88
2019-05-06T08:23:34.156Z,973.88
2019-05-06T08:24:34.201Z,973.88
2019-05-06T08:25:34.300Z,973.87
2019-05-06T08:26:34.339Z,973.87
2019-05-06T08:27:34.384Z,973.84
2019-05-06T08:28:40.696Z,973.82
2019-05-06T08:29:34.485Z,973.84
2019-05-06T08:30:34.519Z,973.85
2019-05-06T08:31:34.539Z,973.84
2019-05-06T08:32:34.608Z,973.84
2019-05-06T08:33:34.643Z,973.84
2019-05-06T08:34:34.681Z,973.83
2019-05-06T08:35:34.731Z,973.87
2019-05-06T08:36:34.778Z,973.84
2019-05-06T08:37:34.859Z,973.87
2019-05-06T08:38:34.877Z,973.90
2019-05-06T08:39:34.922Z,973.87
2019-05-06T08:40:34.974Z,973.88
2019-05-06T08:41:35.022Z,973.90
2019-05-06T08:42:35.109Z,973.95
2019-05-06T08:43:35.119Z,973.89
2019-05-06T08:44:35.161Z,973.86
2019-05-06T08:45:35.217Z,973.87
2019-05-06T08:46:35.264Z,973.86
2019-05-06T08:47:35.336Z,973.82
2019-05-06T08:48:35.375Z,973.82
2019-05-06T08:49:35.402Z,973.77
2019-05-06T08:50:35.456Z,973.86
2019-05-06T08:51:35.497Z,973.83
2019-05-06T08:52:35.579Z,973.82
2019-05-06T08:53:35.591Z,973.86
2019-05-06T08:54:35.642Z,973.82
2019-05-06T08:55:35.728Z,973.77
2019-05-06T08:56:35.753Z,973.74
2019-05-06T08:57:35.808Z,973.75
2019-05-06T08:58:35.864Z,973.78
2019-05-06T08:59:35.891Z,973.76
2019-05-06T09:00:35.930Z,973.78
2019-05-06T09:01:35.974Z,973.82
2019-05-06T09:02:36.040Z,973.83
2019-05-06T09:03:36.094Z,973.75
2019-05-06T09:04:36.117Z,973.79
2019-05-06T09:05:36.169Z,973.76
2019-05-06T09:06:36.215Z,973.78
2019-05-06T09:07:36.263Z,973.77
2019-05-06T09:08:36.328Z,973.79
2019-05-06T09:09:36.374Z,973.84
2019-05-06T09:10:36.415Z,973.79
2019-05-06T09:11:36.446Z,973.79
2019-05-06T09:12:36.503Z,973.78
2019-05-06T09:13:36.562Z,973.83
2019-05-06T09:14:36.609Z,973.81
2019-05-06T09:15:36.637Z,973.78
2019-05-06T09:16:36.685Z,973.77
2019-05-06T09:17:36.727Z,973.77
2019-05-06T09:18:36.814Z,973.80
2019-05-06T09:19:36.831Z,973.81
2019-05-06T09:20:36.870Z,973.83
2019-05-06T09:21:36.924Z,973.82
2019-05-06T09:22:36.968Z,973.82
2019-05-06T09:23:37.037Z,973.82
2019-05-06T09:24:37.056Z,973.85
2019-05-06T09:25:37.108Z,973.89
2019-05-06T09:26:37.155Z,973.86
2019-05-06T09:27:37.238Z,973.85
2019-05-06T09:28:37.262Z,973.88
2019-05-06T09:29:37.310Z,973.86
2019-05-06T09:30:37.347Z,973.91
2019-05-06T09:31:37.393Z,973.93
2019-05-06T09:32:37.434Z,973.86
2019-05-06T09:33:37.476Z,973.90
2019-05-06T09:34:37.552Z,973.91
2019-05-06T09:35:37.577Z,973.84
2019-05-06T09:36:44.218Z,973.91
2019-05-06T09:37:37.673Z,973.91
2019-05-06T09:38:37.723Z,973.87
2019-05-06T09:39:37.785Z,973.92
2019-05-06T09:40:37.823Z,973.94
2019-05-06T09:41:37.898Z,973.87
2019-05-06T09:42:37.925Z,973.87
2019-05-06T09:43:37.964Z,973.90
2019-05-06T09:44:38.037Z,973.90
2019-05-06T09:45:38.066Z,973.95
2019-05-06T09:46:38.121Z,973.97
2019-05-06T09:47:38.210Z,973.92
2019-05-06T09:48:38.203Z,973.98
2019-05-06T09:49:38.279Z,973.94
2019-05-06T09:50:38.328Z,973.92
2019-05-06T09:51:38.351Z,973.97
2019-05-06T09:52:38.401Z,973.94
2019-05-06T09:53:38.456Z,973.99
2019-05-06T09:54:38.629Z,973.93
2019-05-06T09:55:38.547Z,973.94
2019-05-06T09:56:38.607Z,973.94
2019-05-06T09:57:38.640Z,973.92
2019-05-06T09:58:38.691Z,973.89
2019-05-06T09:59:38.774Z,973.93
2019-05-06T10:00:38.805Z,973.94
2019-05-06T10:01:38.840Z,973.90
2019-05-06T10:02:38.880Z,973.89
2019-05-06T10:03:38.929Z,973.89
2019-05-06T10:04:38.982Z,973.92
2019-05-06T10:05:39.048Z,973.89
2019-05-06T10:06:39.073Z,973.93
2019-05-06T10:07:39.117Z,973.91
2019-05-06T10:08:39.167Z,973.92
2019-05-06T10:09:39.213Z,973.97
2019-05-06T10:10:52.930Z,973.94
2019-05-06T10:11:39.316Z,973.90
2019-05-06T10:12:39.407Z,973.94
2019-05-06T10:13:39.419Z,973.97
2019-05-06T10:14:39.459Z,973.94
2019-05-06T10:15:39.525Z,973.99
2019-05-06T10:16:39.565Z,973.95
2019-05-06T10:17:39.594Z,973.96
2019-05-06T10:18:39.643Z,973.97
2019-05-06T10:19:39.692Z,973.94
2019-05-06T10:20:42.276Z,973.97
2019-05-06T10:21:39.792Z,973.97
2019-05-06T10:22:39.839Z,974.00
2019-05-06T10:23:42.160Z,974.01
2019-05-06T10:24:39.940Z,974.04
2019-05-06T10:25:40.016Z,974.03
2019-05-06T10:26:40.095Z,974.04
2019-05-06T10:27:42.114Z,973.98
2019-05-06T10:28:40.127Z,973.97
2019-05-06T10:29:40.175Z,973.94
2019-05-06T10:30:40.249Z,973.93
2019-05-06T10:31:40.272Z,973.94
2019-05-06T10:32:42.474Z,973.96
2019-05-06T10:33:42.644Z,973.96
2019-05-06T10:34:40.418Z,973.93
2019-05-06T10:35:42.671Z,973.96
2019-05-06T10:36:42.592Z,973.99
2019-05-06T10:37:42.216Z,973.98
2019-05-06T10:38:42.332Z,974.02
2019-05-06T10:39:40.660Z,973.96
2019-05-06T10:40:59.037Z,973.98
2019-05-06T10:41:42.236Z,973.95
2019-05-06T10:42:42.901Z,973.96
2019-05-06T10:43:42.975Z,973.95
2019-05-06T10:44:42.781Z,973.96
2019-05-06T10:45:42.654Z,973.96
2019-05-06T10:46:42.929Z,973.96
2019-05-06T10:47:42.332Z,973.95
2019-05-06T10:48:42.425Z,973.95
2019-05-06T10:49:42.081Z,973.98
2019-05-06T10:50:41.192Z,974.03
2019-05-06T10:51:42.737Z,974.00
2019-05-06T10:52:41.305Z,974.03
2019-05-06T10:53:42.441Z,974.06
2019-05-06T10:54:42.121Z,974.03
2019-05-06T10:55:42.753Z,974.05
2019-05-06T10:56:50.712Z,974.04
2019-05-06T10:57:43.111Z,974.04
2019-05-06T10:58:43.779Z,974.06
2019-05-06T10:59:42.923Z,974.03
2019-05-06T11:00:42.487Z,974.06
2019-05-06T11:01:42.640Z,974.05
2019-05-06T11:02:43.017Z,974.09
2019-05-06T11:03:42.065Z,974.06
2019-05-06T11:04:42.575Z,974.05
2019-05-06T11:05:43.153Z,974.02
2019-05-06T11:06:42.990Z,974.04
2019-05-06T11:07:43.087Z,974.05
2019-05-06T11:08:42.227Z,974.05
2019-05-06T11:09:42.646Z,974.02
2019-05-06T11:10:45.176Z,974.03
2019-05-06T11:11:42.763Z,974.02
2019-05-06T11:12:43.064Z,974.01
2019-05-06T11:13:42.295Z,974.01
2019-05-06T11:14:42.346Z,973.98
2019-05-06T11:15:43.408Z,974.00
2019-05-06T11:16:42.477Z,973.98
2019-05-06T11:17:43.619Z,973.99
2019-05-06T11:18:42.763Z,973.99
2019-05-06T11:19:42.821Z,973.98
2019-05-06T11:20:43.978Z,973.94
2019-05-06T11:21:45.224Z,973.99
2019-05-06T11:22:43.541Z,973.99
2019-05-06T11:23:42.777Z,974.00
2019-05-06T11:24:42.824Z,973.99
2019-05-06T11:25:43.327Z,974.01
2019-05-06T11:26:43.149Z,973.98
2019-05-06T11:27:45.231Z,973.96
2019-05-06T11:28:43.026Z,973.98
2019-05-06T11:29:43.534Z,973.99
2019-05-06T11:30:43.113Z,973.96
2019-05-06T11:31:43.349Z,973.91
2019-05-06T11:32:44.419Z,973.90
2019-05-06T11:33:43.264Z,973.87
2019-05-06T11:34:43.322Z,973.91
2019-05-06T11:35:43.357Z,973.89
2019-05-06T11:36:43.417Z,973.92
2019-05-06T11:37:49.768Z,973.91
2019-05-06T11:38:43.517Z,973.97
2019-05-06T11:39:43.555Z,973.99
2019-05-06T11:40:43.612Z,973.98
2019-05-06T11:41:59.619Z,973.94
2019-05-06T11:42:43.863Z,973.98
2019-05-06T11:43:43.767Z,973.98
2019-05-06T11:44:44.206Z,974.01
2019-05-06T11:45:43.857Z,973.98
2019-05-06T11:46:43.920Z,973.98
2019-05-06T11:47:43.980Z,973.97
2019-05-06T11:48:44.006Z,974.03
2019-05-06T11:49:44.287Z,974.01
2019-05-06T11:50:44.103Z,974.04
2019-05-06T11:51:44.159Z,973.99
2019-05-06T11:52:44.238Z,974.01
2019-05-06T11:53:44.256Z,974.01
2019-05-06T11:54:44.303Z,974.06
2019-05-06T11:55:44.460Z,974.05
2019-05-06T11:56:50.777Z,974.07
2019-05-06T11:57:44.588Z,974.07
2019-05-06T11:58:44.508Z,974.07
2019-05-06T11:59:44.592Z,974.01
2019-05-06T12:00:44.626Z,974.04
2019-05-06T12:01:44.669Z,974.07
2019-05-06T12:02:48.421Z,974.07
2019-05-06T12:03:44.788Z,974.02
2019-05-06T12:04:44.827Z,974.03
2019-05-06T12:05:44.864Z,974.06
2019-05-06T12:06:44.928Z,974.05
2019-05-06T12:08:00.434Z,974.06
2019-05-06T12:08:45.036Z,974.08
2019-05-06T12:09:45.084Z,974.12
2019-05-06T12:10:45.124Z,974.09
2019-05-06T12:11:45.171Z,974.06
2019-05-06T12:12:45.239Z,974.08
2019-05-06T12:13:45.305Z,974.10
2019-05-06T12:14:45.337Z,974.11
2019-05-06T12:15:45.391Z,974.08
2019-05-06T12:16:45.446Z,974.12
2019-05-06T12:17:45.493Z,974.11
2019-05-06T12:18:45.557Z,973.97
2019-05-06T12:19:45.586Z,974.10
2019-05-06T12:20:45.639Z,974.06
2019-05-06T12:21:45.701Z,974.05
2019-05-06T12:22:45.751Z,974.06
2019-05-06T12:23:45.824Z,974.04
2019-05-06T12:24:45.866Z,974.07
2019-05-06T12:25:46.281Z,974.02
2019-05-06T12:26:45.962Z,974.05
2019-05-06T12:27:46.071Z,974.03
2019-05-06T12:28:46.074Z,974.01